sensor_id;sensor_type;location;lat;lon;timestamp;temperature;humidity
45643;DHT22;31358;46.008;11.144;2024-02-04T00:01:03;8.50;98.80
45643;DHT22;31358;46.008;11.144;2024-02-04T00:03:29;8.50;98.90
45643;DHT22;31358;46.008;11.144;2024-02-04T00:05:55;8.70;98.50
45643;DHT22;31358;46.008;11.144;2024-02-04T00:08:21;8.70;98.40
45643;DHT22;31358;46.008;11.144;2024-02-04T00:10:47;8.80;98.20
45643;DHT22;31358;46.008;11.144;2024-02-04T00:13:13;8.90;98.00
45643;DHT22;31358;46.008;11.144;2024-02-04T00:15:38;8.90;98.20
45643;DHT22;31358;46.008;11.144;2024-02-04T00:18:04;8.80;98.20
45643;DHT22;31358;46.008;11.144;2024-02-04T00:20:30;8.70;98.30
45643;DHT22;31358;46.008;11.144;2024-02-04T00:22:58;8.80;98.00
45643;DHT22;31358;46.008;11.144;2024-02-04T00:25:23;8.80;98.00
45643;DHT22;31358;46.008;11.144;2024-02-04T00:27:49;8.80;98.00
45643;DHT22;31358;46.008;11.144;2024-02-04T00:30:15;8.80;98.10
45643;DHT22;31358;46.008;11.144;2024-02-04T00:32:41;8.90;98.00
45643;DHT22;31358;46.008;11.144;2024-02-04T00:35:06;8.90;98.00
45643;DHT22;31358;46.008;11.144;2024-02-04T00:37:32;9.00;97.90
45643;DHT22;31358;46.008;11.144;2024-02-04T00:39:58;8.90;98.30
45643;DHT22;31358;46.008;11.144;2024-02-04T00:42:24;8.90;98.00
45643;DHT22;31358;46.008;11.144;2024-02-04T00:44:49;8.80;98.10
45643;DHT22;31358;46.008;11.144;2024-02-04T00:47:15;8.90;98.00
45643;DHT22;31358;46.008;11.144;2024-02-04T00:49:41;8.60;98.40
45643;DHT22;31358;46.008;11.144;2024-02-04T00:52:06;8.40;98.90
45643;DHT22;31358;46.008;11.144;2024-02-04T00:54:32;8.30;99.00
45643;DHT22;31358;46.008;11.144;2024-02-04T00:56:58;8.20;99.10
45643;DHT22;31358;46.008;11.144;2024-02-04T00:59:25;8.00;99.20
45643;DHT22;31358;46.008;11.144;2024-02-04T01:01:51;8.00;99.10
45643;DHT22;31358;46.008;11.144;2024-02-04T01:04:16;8.40;98.30
45643;DHT22;31358;46.008;11.144;2024-02-04T01:06:42;8.70;97.70
45643;DHT22;31358;46.008;11.144;2024-02-04T01:09:08;8.70;97.80
45643;DHT22;31358;46.008;11.144;2024-02-04T01:11:34;8.40;98.20
45643;DHT22;31358;46.008;11.144;2024-02-04T01:13:59;8.20;98.50
45643;DHT22;31358;46.008;11.144;2024-02-04T01:16:25;8.20;98.90
45643;DHT22;31358;46.008;11.144;2024-02-04T01:18:52;8.10;98.90
45643;DHT22;31358;46.008;11.144;2024-02-04T01:21:17;8.00;98.90
45643;DHT22;31358;46.008;11.144;2024-02-04T01:23:43;7.90;99.00
45643;DHT22;31358;46.008;11.144;2024-02-04T01:26:08;7.90;99.20
45643;DHT22;31358;46.008;11.144;2024-02-04T01:28:34;7.80;99.00
45643;DHT22;31358;46.008;11.144;2024-02-04T01:31:00;7.90;98.90
45643;DHT22;31358;46.008;11.144;2024-02-04T01:33:26;8.00;98.30
45643;DHT22;31358;46.008;11.144;2024-02-04T01:35:52;8.40;97.70
45643;DHT22;31358;46.008;11.144;2024-02-04T01:38:18;8.20;98.10
45643;DHT22;31358;46.008;11.144;2024-02-04T01:40:43;8.10;98.30
45643;DHT22;31358;46.008;11.144;2024-02-04T01:43:11;7.90;98.60
45643;DHT22;31358;46.008;11.144;2024-02-04T01:45:37;7.80;98.90
45643;DHT22;31358;46.008;11.144;2024-02-04T01:48:03;7.70;99.10
45643;DHT22;31358;46.008;11.144;2024-02-04T01:50:30;7.70;99.40
45643;DHT22;31358;46.008;11.144;2024-02-04T01:52:55;7.50;99.30
45643;DHT22;31358;46.008;11.144;2024-02-04T01:55:21;7.70;98.80
45643;DHT22;31358;46.008;11.144;2024-02-04T01:57:48;7.70;98.80
45643;DHT22;31358;46.008;11.144;2024-02-04T02:00:15;7.50;99.20
45643;DHT22;31358;46.008;11.144;2024-02-04T02:02:41;7.50;99.50
45643;DHT22;31358;46.008;11.144;2024-02-04T02:05:08;7.80;99.10
45643;DHT22;31358;46.008;11.144;2024-02-04T02:07:35;7.60;99.40
45643;DHT22;31358;46.008;11.144;2024-02-04T02:10:00;7.60;99.40
45643;DHT22;31358;46.008;11.144;2024-02-04T02:12:30;7.70;99.30
45643;DHT22;31358;46.008;11.144;2024-02-04T02:17:44;7.80;98.90
45643;DHT22;31358;46.008;11.144;2024-02-04T02:20:19;8.00;98.40
45643;DHT22;31358;46.008;11.144;2024-02-04T02:22:57;7.90;98.30
45643;DHT22;31358;46.008;11.144;2024-02-04T02:25:30;7.90;98.50
45643;DHT22;31358;46.008;11.144;2024-02-04T02:27:56;8.10;98.20
45643;DHT22;31358;46.008;11.144;2024-02-04T02:30:22;8.10;98.40
45643;DHT22;31358;46.008;11.144;2024-02-04T02:32:48;8.10;98.50
45643;DHT22;31358;46.008;11.144;2024-02-04T02:35:15;7.80;98.70
45643;DHT22;31358;46.008;11.144;2024-02-04T02:37:56;7.70;98.10
45643;DHT22;31358;46.008;11.144;2024-02-04T02:40:39;7.70;98.00
45643;DHT22;31358;46.008;11.144;2024-02-04T02:43:08;7.80;97.80
45643;DHT22;31358;46.008;11.144;2024-02-04T02:45:37;7.60;98.10
45643;DHT22;31358;46.008;11.144;2024-02-04T02:48:05;7.40;99.10
45643;DHT22;31358;46.008;11.144;2024-02-04T02:50:33;7.30;98.90
45643;DHT22;31358;46.008;11.144;2024-02-04T02:52:59;7.50;98.40
45643;DHT22;31358;46.008;11.144;2024-02-04T02:55:25;7.70;98.40
45643;DHT22;31358;46.008;11.144;2024-02-04T02:57:50;7.60;98.50
45643;DHT22;31358;46.008;11.144;2024-02-04T03:00:16;7.50;98.70
45643;DHT22;31358;46.008;11.144;2024-02-04T03:02:42;7.60;98.70
45643;DHT22;31358;46.008;11.144;2024-02-04T03:05:08;7.50;98.70
45643;DHT22;31358;46.008;11.144;2024-02-04T03:07:33;7.60;98.50
45643;DHT22;31358;46.008;11.144;2024-02-04T03:09:59;7.40;98.50
45643;DHT22;31358;46.008;11.144;2024-02-04T03:12:25;7.50;98.80
45643;DHT22;31358;46.008;11.144;2024-02-04T03:14:50;7.40;98.60
45643;DHT22;31358;46.008;11.144;2024-02-04T03:17:16;7.30;99.00
45643;DHT22;31358;46.008;11.144;2024-02-04T03:19:46;7.20;99.10
45643;DHT22;31358;46.008;11.144;2024-02-04T03:22:13;7.20;99.10
45643;DHT22;31358;46.008;11.144;2024-02-04T03:24:38;7.30;98.80
45643;DHT22;31358;46.008;11.144;2024-02-04T03:27:04;7.40;98.80
45643;DHT22;31358;46.008;11.144;2024-02-04T03:29:30;7.20;98.80
45643;DHT22;31358;46.008;11.144;2024-02-04T03:31:56;7.00;99.30
45643;DHT22;31358;46.008;11.144;2024-02-04T03:34:21;6.80;99.50
45643;DHT22;31358;46.008;11.144;2024-02-04T03:36:47;6.90;99.50
45643;DHT22;31358;46.008;11.144;2024-02-04T03:39:13;6.90;98.90
45643;DHT22;31358;46.008;11.144;2024-02-04T03:41:39;6.90;99.10
45643;DHT22;31358;46.008;11.144;2024-02-04T03:44:05;6.90;98.80
45643;DHT22;31358;46.008;11.144;2024-02-04T03:46:31;6.90;98.90
45643;DHT22;31358;46.008;11.144;2024-02-04T03:48:56;7.00;98.80
45643;DHT22;31358;46.008;11.144;2024-02-04T03:51:22;7.00;98.80
45643;DHT22;31358;46.008;11.144;2024-02-04T03:53:50;7.00;98.40
45643;DHT22;31358;46.008;11.144;2024-02-04T03:56:16;7.10;98.10
45643;DHT22;31358;46.008;11.144;2024-02-04T03:58:42;7.10;98.00
45643;DHT22;31358;46.008;11.144;2024-02-04T04:01:11;7.20;98.00
45643;DHT22;31358;46.008;11.144;2024-02-04T04:03:41;7.30;97.90
45643;DHT22;31358;46.008;11.144;2024-02-04T04:06:07;7.00;98.30
45643;DHT22;31358;46.008;11.144;2024-02-04T04:08:33;7.00;98.60
45643;DHT22;31358;46.008;11.144;2024-02-04T04:10:58;7.00;99.10
45643;DHT22;31358;46.008;11.144;2024-02-04T04:13:24;6.90;98.40
45643;DHT22;31358;46.008;11.144;2024-02-04T04:15:50;7.30;97.90
45643;DHT22;31358;46.008;11.144;2024-02-04T04:18:16;7.60;97.70
45643;DHT22;31358;46.008;11.144;2024-02-04T04:20:42;7.50;97.60
45643;DHT22;31358;46.008;11.144;2024-02-04T04:23:08;7.70;97.50
45643;DHT22;31358;46.008;11.144;2024-02-04T04:25:33;7.80;97.10
45643;DHT22;31358;46.008;11.144;2024-02-04T04:27:59;7.70;97.10
45643;DHT22;31358;46.008;11.144;2024-02-04T04:30:25;7.80;97.00
45643;DHT22;31358;46.008;11.144;2024-02-04T04:32:51;8.10;96.70
45643;DHT22;31358;46.008;11.144;2024-02-04T04:35:16;8.20;96.50
45643;DHT22;31358;46.008;11.144;2024-02-04T04:37:42;7.90;96.90
45643;DHT22;31358;46.008;11.144;2024-02-04T04:40:08;7.50;97.70
45643;DHT22;31358;46.008;11.144;2024-02-04T04:42:34;7.40;97.70
45643;DHT22;31358;46.008;11.144;2024-02-04T04:44:59;7.40;97.80
45643;DHT22;31358;46.008;11.144;2024-02-04T04:47:25;7.20;97.80
45643;DHT22;31358;46.008;11.144;2024-02-04T04:49:51;7.30;97.80
45643;DHT22;31358;46.008;11.144;2024-02-04T04:52:16;7.70;97.40
45643;DHT22;31358;46.008;11.144;2024-02-04T04:54:42;8.40;96.10
45643;DHT22;31358;46.008;11.144;2024-02-04T04:57:08;8.50;95.80
45643;DHT22;31358;46.008;11.144;2024-02-04T04:59:34;8.00;96.70
45643;DHT22;31358;46.008;11.144;2024-02-04T05:02:01;7.60;97.50
45643;DHT22;31358;46.008;11.144;2024-02-04T05:04:27;7.50;97.50
45643;DHT22;31358;46.008;11.144;2024-02-04T05:06:53;7.30;97.80
45643;DHT22;31358;46.008;11.144;2024-02-04T05:09:18;7.30;97.90
45643;DHT22;31358;46.008;11.144;2024-02-04T05:11:44;7.30;97.70
45643;DHT22;31358;46.008;11.144;2024-02-04T05:14:10;7.40;97.20
45643;DHT22;31358;46.008;11.144;2024-02-04T05:16:36;7.60;96.60
45643;DHT22;31358;46.008;11.144;2024-02-04T05:19:02;7.60;96.70
45643;DHT22;31358;46.008;11.144;2024-02-04T05:21:28;7.50;96.60
45643;DHT22;31358;46.008;11.144;2024-02-04T05:23:54;7.80;96.20
45643;DHT22;31358;46.008;11.144;2024-02-04T05:26:20;8.20;95.70
45643;DHT22;31358;46.008;11.144;2024-02-04T05:28:45;8.00;96.20
45643;DHT22;31358;46.008;11.144;2024-02-04T05:31:11;7.70;96.90
45643;DHT22;31358;46.008;11.144;2024-02-04T05:33:37;7.50;96.70
45643;DHT22;31358;46.008;11.144;2024-02-04T05:36:03;7.40;96.50
45643;DHT22;31358;46.008;11.144;2024-02-04T05:38:30;7.50;96.40
45643;DHT22;31358;46.008;11.144;2024-02-04T05:40:55;7.50;96.20
45643;DHT22;31358;46.008;11.144;2024-02-04T05:43:21;7.40;96.80
45643;DHT22;31358;46.008;11.144;2024-02-04T05:45:47;7.40;96.70
45643;DHT22;31358;46.008;11.144;2024-02-04T05:48:12;7.20;96.90
45643;DHT22;31358;46.008;11.144;2024-02-04T05:50:39;7.10;97.00
45643;DHT22;31358;46.008;11.144;2024-02-04T05:53:04;7.00;97.00
45643;DHT22;31358;46.008;11.144;2024-02-04T05:55:30;7.00;97.30
45643;DHT22;31358;46.008;11.144;2024-02-04T05:57:56;7.10;97.20
45643;DHT22;31358;46.008;11.144;2024-02-04T06:00:22;7.10;97.10
45643;DHT22;31358;46.008;11.144;2024-02-04T06:02:48;7.50;96.40
45643;DHT22;31358;46.008;11.144;2024-02-04T06:05:14;7.80;95.80
45643;DHT22;31358;46.008;11.144;2024-02-04T06:07:42;7.90;95.90
45643;DHT22;31358;46.008;11.144;2024-02-04T06:10:11;8.00;95.60
45643;DHT22;31358;46.008;11.144;2024-02-04T06:12:37;7.90;95.50
45643;DHT22;31358;46.008;11.144;2024-02-04T06:15:11;7.70;96.20
45643;DHT22;31358;46.008;11.144;2024-02-04T06:17:37;8.10;98.00
45643;DHT22;31358;46.008;11.144;2024-02-04T06:20:03;8.20;95.30
45643;DHT22;31358;46.008;11.144;2024-02-04T06:22:29;8.30;95.20
45643;DHT22;31358;46.008;11.144;2024-02-04T06:24:54;8.10;95.30
45643;DHT22;31358;46.008;11.144;2024-02-04T06:27:20;7.80;95.50
45643;DHT22;31358;46.008;11.144;2024-02-04T06:29:46;7.50;96.00
45643;DHT22;31358;46.008;11.144;2024-02-04T06:32:11;7.10;96.70
45643;DHT22;31358;46.008;11.144;2024-02-04T06:34:38;6.40;98.20
45643;DHT22;31358;46.008;11.144;2024-02-04T06:37:04;6.30;98.60
45643;DHT22;31358;46.008;11.144;2024-02-04T06:39:30;7.00;96.80
45643;DHT22;31358;46.008;11.144;2024-02-04T06:41:55;7.30;96.40
45643;DHT22;31358;46.008;11.144;2024-02-04T06:44:21;7.40;96.20
45643;DHT22;31358;46.008;11.144;2024-02-04T06:46:47;7.10;96.80
45643;DHT22;31358;46.008;11.144;2024-02-04T06:49:13;6.70;97.90
45643;DHT22;31358;46.008;11.144;2024-02-04T06:51:43;6.50;98.20
45643;DHT22;31358;46.008;11.144;2024-02-04T06:54:10;6.30;98.60
45643;DHT22;31358;46.008;11.144;2024-02-04T06:56:35;6.10;98.80
45643;DHT22;31358;46.008;11.144;2024-02-04T06:59:02;6.00;98.90
45643;DHT22;31358;46.008;11.144;2024-02-04T07:01:28;6.10;98.80
45643;DHT22;31358;46.008;11.144;2024-02-04T07:03:54;5.90;99.20
45643;DHT22;31358;46.008;11.144;2024-02-04T07:06:20;5.90;99.20
45643;DHT22;31358;46.008;11.144;2024-02-04T07:08:45;5.90;99.50
45643;DHT22;31358;46.008;11.144;2024-02-04T07:11:11;5.80;99.70
45643;DHT22;31358;46.008;11.144;2024-02-04T07:13:36;5.90;99.70
45643;DHT22;31358;46.008;11.144;2024-02-04T07:16:02;5.90;99.40
45643;DHT22;31358;46.008;11.144;2024-02-04T07:18:28;6.20;99.00
45643;DHT22;31358;46.008;11.144;2024-02-04T07:20:54;6.30;98.90
45643;DHT22;31358;46.008;11.144;2024-02-04T07:23:19;6.40;98.90
45643;DHT22;31358;46.008;11.144;2024-02-04T07:25:45;6.30;98.90
45643;DHT22;31358;46.008;11.144;2024-02-04T07:28:11;6.40;99.10
45643;DHT22;31358;46.008;11.144;2024-02-04T07:30:36;6.20;99.40
45643;DHT22;31358;46.008;11.144;2024-02-04T07:33:02;6.30;99.30
45643;DHT22;31358;46.008;11.144;2024-02-04T07:35:28;6.40;98.80
45643;DHT22;31358;46.008;11.144;2024-02-04T07:37:54;6.40;99.10
45643;DHT22;31358;46.008;11.144;2024-02-04T07:40:19;6.40;99.00
45643;DHT22;31358;46.008;11.144;2024-02-04T07:42:45;6.30;99.10
45643;DHT22;31358;46.008;11.144;2024-02-04T07:45:11;6.30;99.30
45643;DHT22;31358;46.008;11.144;2024-02-04T07:47:37;6.30;99.30
45643;DHT22;31358;46.008;11.144;2024-02-04T07:50:02;6.40;98.90
45643;DHT22;31358;46.008;11.144;2024-02-04T07:52:28;6.40;99.90
45643;DHT22;31358;46.008;11.144;2024-02-04T07:54:54;6.40;99.40
45643;DHT22;31358;46.008;11.144;2024-02-04T07:57:20;6.50;98.90
45643;DHT22;31358;46.008;11.144;2024-02-04T07:59:46;6.80;98.30
45643;DHT22;31358;46.008;11.144;2024-02-04T08:02:11;6.90;98.00
45643;DHT22;31358;46.008;11.144;2024-02-04T08:04:40;7.00;98.20
45643;DHT22;31358;46.008;11.144;2024-02-04T08:07:06;6.90;98.40
45643;DHT22;31358;46.008;11.144;2024-02-04T08:09:32;7.00;98.00
45643;DHT22;31358;46.008;11.144;2024-02-04T08:11:57;7.00;98.10
45643;DHT22;31358;46.008;11.144;2024-02-04T08:14:23;7.00;98.00
45643;DHT22;31358;46.008;11.144;2024-02-04T08:16:49;7.10;97.80
45643;DHT22;31358;46.008;11.144;2024-02-04T08:19:15;7.40;97.00
45643;DHT22;31358;46.008;11.144;2024-02-04T08:21:41;7.60;96.70
45643;DHT22;31358;46.008;11.144;2024-02-04T08:24:07;7.60;96.60
45643;DHT22;31358;46.008;11.144;2024-02-04T08:26:32;7.70;96.70
45643;DHT22;31358;46.008;11.144;2024-02-04T08:28:59;7.70;96.70
45643;DHT22;31358;46.008;11.144;2024-02-04T08:31:25;7.60;96.70
45643;DHT22;31358;46.008;11.144;2024-02-04T08:33:50;7.60;96.70
45643;DHT22;31358;46.008;11.144;2024-02-04T08:36:18;7.40;97.10
45643;DHT22;31358;46.008;11.144;2024-02-04T08:38:44;7.10;97.80
45643;DHT22;31358;46.008;11.144;2024-02-04T08:41:09;7.10;97.70
45643;DHT22;31358;46.008;11.144;2024-02-04T08:43:35;7.10;97.50
45643;DHT22;31358;46.008;11.144;2024-02-04T08:46:01;7.20;97.20
45643;DHT22;31358;46.008;11.144;2024-02-04T08:48:26;7.30;97.20
45643;DHT22;31358;46.008;11.144;2024-02-04T08:50:52;7.40;97.10
45643;DHT22;31358;46.008;11.144;2024-02-04T08:53:20;7.40;97.10
45643;DHT22;31358;46.008;11.144;2024-02-04T08:55:46;7.10;97.60
45643;DHT22;31358;46.008;11.144;2024-02-04T08:58:11;6.90;97.70
45643;DHT22;31358;46.008;11.144;2024-02-04T09:00:37;6.90;97.80
45643;DHT22;31358;46.008;11.144;2024-02-04T09:03:03;6.90;97.80
45643;DHT22;31358;46.008;11.144;2024-02-04T09:05:29;7.00;97.60
45643;DHT22;31358;46.008;11.144;2024-02-04T09:07:54;7.10;97.40
45643;DHT22;31358;46.008;11.144;2024-02-04T09:10:21;7.30;97.10
45643;DHT22;31358;46.008;11.144;2024-02-04T09:12:47;7.50;96.70
45643;DHT22;31358;46.008;11.144;2024-02-04T09:15:13;7.60;96.70
45643;DHT22;31358;46.008;11.144;2024-02-04T09:17:39;7.60;96.60
45643;DHT22;31358;46.008;11.144;2024-02-04T09:20:05;7.70;96.60
45643;DHT22;31358;46.008;11.144;2024-02-04T09:22:31;7.80;96.30
45643;DHT22;31358;46.008;11.144;2024-02-04T09:24:57;7.60;97.00
45643;DHT22;31358;46.008;11.144;2024-02-04T09:27:22;7.30;97.50
45643;DHT22;31358;46.008;11.144;2024-02-04T09:29:48;7.20;98.10
45643;DHT22;31358;46.008;11.144;2024-02-04T09:32:14;7.10;98.20
45643;DHT22;31358;46.008;11.144;2024-02-04T09:34:39;7.20;98.20
45643;DHT22;31358;46.008;11.144;2024-02-04T09:37:05;7.10;98.70
45643;DHT22;31358;46.008;11.144;2024-02-04T09:39:31;7.10;98.70
45643;DHT22;31358;46.008;11.144;2024-02-04T09:41:57;7.20;98.50
45643;DHT22;31358;46.008;11.144;2024-02-04T09:44:23;7.30;97.70
45643;DHT22;31358;46.008;11.144;2024-02-04T09:46:50;7.60;96.90
45643;DHT22;31358;46.008;11.144;2024-02-04T09:49:15;7.70;96.80
45643;DHT22;31358;46.008;11.144;2024-02-04T09:51:41;7.80;97.40
45643;DHT22;31358;46.008;11.144;2024-02-04T09:54:10;7.90;96.80
45643;DHT22;31358;46.008;11.144;2024-02-04T09:56:37;8.00;96.40
45643;DHT22;31358;46.008;11.144;2024-02-04T09:59:04;8.10;96.20
45643;DHT22;31358;46.008;11.144;2024-02-04T10:01:31;8.30;95.90
45643;DHT22;31358;46.008;11.144;2024-02-04T10:03:57;8.50;95.80
45643;DHT22;31358;46.008;11.144;2024-02-04T10:06:23;8.60;96.50
45643;DHT22;31358;46.008;11.144;2024-02-04T10:08:50;8.40;97.10
45643;DHT22;31358;46.008;11.144;2024-02-04T10:11:16;8.30;97.00
45643;DHT22;31358;46.008;11.144;2024-02-04T10:13:46;8.30;97.30
45643;DHT22;31358;46.008;11.144;2024-02-04T10:16:16;8.40;96.50
45643;DHT22;31358;46.008;11.144;2024-02-04T10:18:45;8.50;96.00
45643;DHT22;31358;46.008;11.144;2024-02-04T10:21:18;8.60;96.70
45643;DHT22;31358;46.008;11.144;2024-02-04T10:23:45;8.50;96.70
45643;DHT22;31358;46.008;11.144;2024-02-04T10:26:11;8.50;96.50
45643;DHT22;31358;46.008;11.144;2024-02-04T10:28:37;8.60;96.00
45643;DHT22;31358;46.008;11.144;2024-02-04T10:31:04;8.60;95.90
45643;DHT22;31358;46.008;11.144;2024-02-04T10:33:31;8.80;95.50
45643;DHT22;31358;46.008;11.144;2024-02-04T10:35:57;9.00;95.50
45643;DHT22;31358;46.008;11.144;2024-02-04T10:38:23;9.00;96.10
45643;DHT22;31358;46.008;11.144;2024-02-04T10:40:53;9.00;96.70
45643;DHT22;31358;46.008;11.144;2024-02-04T10:43:20;9.10;96.80
45643;DHT22;31358;46.008;11.144;2024-02-04T10:45:47;9.10;96.30
45643;DHT22;31358;46.008;11.144;2024-02-04T10:48:15;9.20;96.20
45643;DHT22;31358;46.008;11.144;2024-02-04T10:50:46;9.40;96.40
45643;DHT22;31358;46.008;11.144;2024-02-04T10:53:17;9.50;96.30
45643;DHT22;31358;46.008;11.144;2024-02-04T10:55:46;9.50;96.00
45643;DHT22;31358;46.008;11.144;2024-02-04T10:58:13;9.70;96.10
45643;DHT22;31358;46.008;11.144;2024-02-04T11:00:43;9.80;95.90
45643;DHT22;31358;46.008;11.144;2024-02-04T11:03:11;9.80;95.80
45643;DHT22;31358;46.008;11.144;2024-02-04T11:05:39;9.80;95.20
45643;DHT22;31358;46.008;11.144;2024-02-04T11:08:08;10.00;95.10
45643;DHT22;31358;46.008;11.144;2024-02-04T11:10:37;10.00;95.20
45643;DHT22;31358;46.008;11.144;2024-02-04T11:13:04;10.20;94.60
45643;DHT22;31358;46.008;11.144;2024-02-04T11:15:36;10.30;94.00
45643;DHT22;31358;46.008;11.144;2024-02-04T11:18:11;10.50;93.70
45643;DHT22;31358;46.008;11.144;2024-02-04T11:20:54;10.70;93.80
45643;DHT22;31358;46.008;11.144;2024-02-04T11:23:41;10.70;93.80
45643;DHT22;31358;46.008;11.144;2024-02-04T11:26:11;10.80;94.20
45643;DHT22;31358;46.008;11.144;2024-02-04T11:28:37;10.90;94.60
45643;DHT22;31358;46.008;11.144;2024-02-04T11:31:04;11.10;94.40
45643;DHT22;31358;46.008;11.144;2024-02-04T11:33:31;11.10;94.10
45643;DHT22;31358;46.008;11.144;2024-02-04T11:36:05;11.10;94.40
45643;DHT22;31358;46.008;11.144;2024-02-04T11:38:41;11.10;94.10
45643;DHT22;31358;46.008;11.144;2024-02-04T11:41:07;11.10;93.80
45643;DHT22;31358;46.008;11.144;2024-02-04T11:43:34;11.20;93.70
45643;DHT22;31358;46.008;11.144;2024-02-04T11:46:03;11.30;93.90
45643;DHT22;31358;46.008;11.144;2024-02-04T11:48:29;11.30;93.50
45643;DHT22;31358;46.008;11.144;2024-02-04T11:50:58;11.30;93.30
45643;DHT22;31358;46.008;11.144;2024-02-04T11:53:24;11.40;93.50
45643;DHT22;31358;46.008;11.144;2024-02-04T11:55:54;11.60;93.10
45643;DHT22;31358;46.008;11.144;2024-02-04T11:58:20;11.60;92.80
45643;DHT22;31358;46.008;11.144;2024-02-04T12:00:46;11.70;93.10
45643;DHT22;31358;46.008;11.144;2024-02-04T12:03:12;11.90;93.20
45643;DHT22;31358;46.008;11.144;2024-02-04T12:05:38;11.90;93.30
45643;DHT22;31358;46.008;11.144;2024-02-04T12:08:07;11.80;92.90
45643;DHT22;31358;46.008;11.144;2024-02-04T12:10:35;11.80;93.10
45643;DHT22;31358;46.008;11.144;2024-02-04T12:13:05;11.80;93.50
45643;DHT22;31358;46.008;11.144;2024-02-04T12:15:35;11.90;93.20
45643;DHT22;31358;46.008;11.144;2024-02-04T12:18:08;12.00;93.50
45643;DHT22;31358;46.008;11.144;2024-02-04T12:20:36;12.10;92.70
45643;DHT22;31358;46.008;11.144;2024-02-04T12:23:06;12.10;92.60
45643;DHT22;31358;46.008;11.144;2024-02-04T12:25:32;12.10;93.20
45643;DHT22;31358;46.008;11.144;2024-02-04T12:27:59;12.00;93.00
45643;DHT22;31358;46.008;11.144;2024-02-04T12:30:26;11.90;93.20
45643;DHT22;31358;46.008;11.144;2024-02-04T12:33:03;11.90;93.40
45643;DHT22;31358;46.008;11.144;2024-02-04T12:35:32;12.00;93.40
45643;DHT22;31358;46.008;11.144;2024-02-04T12:37:58;12.00;93.10
45643;DHT22;31358;46.008;11.144;2024-02-04T12:40:28;12.10;93.30
45643;DHT22;31358;46.008;11.144;2024-02-04T12:42:58;12.20;93.60
45643;DHT22;31358;46.008;11.144;2024-02-04T12:45:25;12.20;93.30
45643;DHT22;31358;46.008;11.144;2024-02-04T12:47:52;12.20;93.20
45643;DHT22;31358;46.008;11.144;2024-02-04T12:50:19;12.40;93.60
45643;DHT22;31358;46.008;11.144;2024-02-04T12:52:50;12.60;93.10
45643;DHT22;31358;46.008;11.144;2024-02-04T12:55:26;12.60;92.70
45643;DHT22;31358;46.008;11.144;2024-02-04T12:58:06;12.60;92.60
45643;DHT22;31358;46.008;11.144;2024-02-04T13:00:33;12.80;92.90
45643;DHT22;31358;46.008;11.144;2024-02-04T13:02:59;12.80;92.60
45643;DHT22;31358;46.008;11.144;2024-02-04T13:05:26;12.60;92.60
45643;DHT22;31358;46.008;11.144;2024-02-04T13:07:55;12.70;92.40
45643;DHT22;31358;46.008;11.144;2024-02-04T13:10:25;13.00;92.50
45643;DHT22;31358;46.008;11.144;2024-02-04T13:13:02;13.10;92.30
45643;DHT22;31358;46.008;11.144;2024-02-04T13:15:29;12.90;91.90
45643;DHT22;31358;46.008;11.144;2024-02-04T13:17:55;12.80;91.80
45643;DHT22;31358;46.008;11.144;2024-02-04T13:20:22;12.70;91.90
45643;DHT22;31358;46.008;11.144;2024-02-04T13:22:48;12.70;91.90
45643;DHT22;31358;46.008;11.144;2024-02-04T13:25:14;12.80;91.60
45643;DHT22;31358;46.008;11.144;2024-02-04T13:27:40;12.70;91.30
45643;DHT22;31358;46.008;11.144;2024-02-04T13:30:07;12.80;91.20
45643;DHT22;31358;46.008;11.144;2024-02-04T13:32:40;12.90;91.70
45643;DHT22;31358;46.008;11.144;2024-02-04T13:35:07;12.80;91.50
45643;DHT22;31358;46.008;11.144;2024-02-04T13:37:39;12.80;91.70
45643;DHT22;31358;46.008;11.144;2024-02-04T13:40:06;12.90;92.00
45643;DHT22;31358;46.008;11.144;2024-02-04T13:42:34;12.90;91.60
45643;DHT22;31358;46.008;11.144;2024-02-04T13:45:00;12.80;92.10
45643;DHT22;31358;46.008;11.144;2024-02-04T13:47:27;12.90;92.40
45643;DHT22;31358;46.008;11.144;2024-02-04T13:49:53;13.10;92.80
45643;DHT22;31358;46.008;11.144;2024-02-04T13:52:18;13.00;92.60
45643;DHT22;31358;46.008;11.144;2024-02-04T13:54:44;13.00;92.20
45643;DHT22;31358;46.008;11.144;2024-02-04T13:57:10;13.00;92.50
45643;DHT22;31358;46.008;11.144;2024-02-04T13:59:36;13.20;92.50
45643;DHT22;31358;46.008;11.144;2024-02-04T14:02:02;13.20;92.50
45643;DHT22;31358;46.008;11.144;2024-02-04T14:04:29;13.20;92.70
45643;DHT22;31358;46.008;11.144;2024-02-04T14:06:55;13.20;92.80
45643;DHT22;31358;46.008;11.144;2024-02-04T14:09:20;13.20;92.60
45643;DHT22;31358;46.008;11.144;2024-02-04T14:11:46;13.00;92.50
45643;DHT22;31358;46.008;11.144;2024-02-04T14:14:12;12.80;93.10
45643;DHT22;31358;46.008;11.144;2024-02-04T14:16:38;12.70;93.00
45643;DHT22;31358;46.008;11.144;2024-02-04T14:19:04;12.60;92.90
45643;DHT22;31358;46.008;11.144;2024-02-04T14:21:30;12.60;93.00
45643;DHT22;31358;46.008;11.144;2024-02-04T14:23:56;12.50;93.10
45643;DHT22;31358;46.008;11.144;2024-02-04T14:26:21;12.40;93.30
45643;DHT22;31358;46.008;11.144;2024-02-04T14:28:48;12.40;93.10
45643;DHT22;31358;46.008;11.144;2024-02-04T14:31:14;12.30;93.40
45643;DHT22;31358;46.008;11.144;2024-02-04T14:33:41;12.30;93.50
45643;DHT22;31358;46.008;11.144;2024-02-04T14:36:07;12.30;93.80
45643;DHT22;31358;46.008;11.144;2024-02-04T14:38:33;12.20;93.90
45643;DHT22;31358;46.008;11.144;2024-02-04T14:40:59;12.10;93.70
45643;DHT22;31358;46.008;11.144;2024-02-04T14:43:25;12.00;93.90
45643;DHT22;31358;46.008;11.144;2024-02-04T14:45:51;11.80;94.10
45643;DHT22;31358;46.008;11.144;2024-02-04T14:48:17;11.80;93.60
45643;DHT22;31358;46.008;11.144;2024-02-04T14:50:43;11.80;94.10
45643;DHT22;31358;46.008;11.144;2024-02-04T14:53:09;11.70;93.90
45643;DHT22;31358;46.008;11.144;2024-02-04T14:55:35;11.70;94.10
45643;DHT22;31358;46.008;11.144;2024-02-04T14:58:00;11.70;93.90
45643;DHT22;31358;46.008;11.144;2024-02-04T15:00:26;11.70;94.20
45643;DHT22;31358;46.008;11.144;2024-02-04T15:02:56;11.60;94.20
45643;DHT22;31358;46.008;11.144;2024-02-04T15:05:22;11.60;94.50
45643;DHT22;31358;46.008;11.144;2024-02-04T15:07:49;11.50;94.50
45643;DHT22;31358;46.008;11.144;2024-02-04T15:10:15;11.40;94.80
45643;DHT22;31358;46.008;11.144;2024-02-04T15:12:41;11.50;95.30
45643;DHT22;31358;46.008;11.144;2024-02-04T15:15:07;11.60;94.50
45643;DHT22;31358;46.008;11.144;2024-02-04T15:17:34;11.50;94.30
45643;DHT22;31358;46.008;11.144;2024-02-04T15:20:00;11.50;94.20
45643;DHT22;31358;46.008;11.144;2024-02-04T15:22:25;11.50;94.20
45643;DHT22;31358;46.008;11.144;2024-02-04T15:24:51;11.50;94.20
45643;DHT22;31358;46.008;11.144;2024-02-04T15:27:18;11.40;94.40